createdAt,value
2023-01-10T00:02:24.111Z,84.48
2023-01-10T00:05:30.149Z,84.64
2023-01-10T00:08:35.984Z,84.76
2023-01-10T00:11:59.454Z,84.75
2023-01-10T00:15:05.840Z,84.66
2023-01-10T00:18:11.683Z,84.73
2023-01-10T00:21:19.863Z,84.91
2023-01-10T00:24:26.571Z,84.95
2023-01-10T00:27:32.640Z,84.94
2023-01-10T00:30:40.992Z,85.03
2023-01-10T00:33:47.398Z,84.95
2023-01-10T00:36:51.652Z,85.05
2023-01-10T00:39:57.350Z,85.06
2023-01-10T00:43:20.753Z,84.97
2023-01-10T00:46:26.883Z,84.89
2023-01-10T00:49:32.668Z,84.96
2023-01-10T00:52:38.427Z,84.85
2023-01-10T00:55:44.162Z,84.98
2023-01-10T00:58:49.896Z,85.12
2023-01-10T01:01:55.707Z,85.03
2023-01-10T01:05:01.645Z,84.91
2023-01-10T01:08:07.713Z,85.00
2023-01-10T01:11:13.673Z,85.09
2023-01-10T01:14:19.507Z,84.96
2023-01-10T01:17:25.276Z,85.01
2023-01-10T01:20:32.361Z,85.07
2023-01-10T01:23:38.716Z,84.96
2023-01-10T01:26:43.359Z,85.17
2023-01-10T01:29:49.218Z,85.34
2023-01-10T01:32:55.377Z,85.43
2023-01-10T01:35:59.702Z,85.48
2023-01-10T01:39:06.295Z,85.40
2023-01-10T01:42:25.850Z,85.62
2023-01-10T01:45:40.316Z,85.58
2023-01-10T01:48:46.883Z,85.51
2023-01-10T01:51:56.649Z,85.57
2023-01-10T01:55:04.255Z,85.60
2023-01-10T01:58:15.022Z,85.72
2023-01-10T02:01:22.965Z,85.60
2023-01-10T02:04:32.571Z,85.59
2023-01-10T02:07:41.375Z,85.78
2023-01-10T02:10:54.198Z,85.81
2023-01-10T02:14:01.395Z,85.84
2023-01-10T02:17:10.234Z,85.81
2023-01-10T02:20:18.648Z,85.90
2023-01-10T02:24:02.780Z,85.81
2023-01-10T02:27:20.423Z,85.90
2023-01-10T02:30:46.171Z,85.86
2023-01-10T02:33:59.005Z,85.98
2023-01-10T02:37:13.746Z,85.92
2023-01-10T02:40:28.408Z,85.93
2023-01-10T02:43:39.519Z,85.98
2023-01-10T02:46:48.072Z,86.23
2023-01-10T02:49:54.861Z,86.10
2023-01-10T02:53:06.044Z,86.10
2023-01-10T02:56:31.102Z,86.09
2023-01-10T03:00:14.589Z,86.19
2023-01-10T03:03:33.497Z,86.15
2023-01-10T03:06:51.002Z,86.08
2023-01-10T03:10:03.087Z,86.27
2023-01-10T03:13:13.262Z,86.45
2023-01-10T03:16:24.906Z,86.45
2023-01-10T03:19:34.202Z,86.58
2023-01-10T03:22:42.296Z,86.56
2023-01-10T03:25:51.643Z,86.53
2023-01-10T03:29:02.518Z,86.50
2023-01-10T03:32:12.000Z,86.57
2023-01-10T03:35:18.439Z,86.49
2023-01-10T03:38:32.784Z,86.56
2023-01-10T03:41:42.431Z,86.59
2023-01-10T03:44:59.653Z,86.69
2023-01-10T03:48:08.146Z,86.69
2023-01-10T03:51:15.492Z,86.66
2023-01-10T03:54:21.734Z,86.64
2023-01-10T03:57:28.086Z,86.49
2023-01-10T04:00:32.197Z,86.49
2023-01-10T04:03:38.007Z,86.75
2023-01-10T04:06:43.867Z,86.66
2023-01-10T04:09:49.641Z,86.60
2023-01-10T04:12:55.430Z,86.50
2023-01-10T04:16:03.056Z,86.53
2023-01-10T04:19:09.254Z,86.62
2023-01-10T04:22:15.444Z,86.74
2023-01-10T04:25:21.220Z,86.61
2023-01-10T04:28:27.150Z,86.61
2023-01-10T04:31:32.994Z,86.67
2023-01-10T04:34:39.303Z,86.68
2023-01-10T04:37:45.838Z,86.74
2023-01-10T04:40:57.868Z,86.59
2023-01-10T04:44:03.944Z,86.58
2023-01-10T04:47:09.761Z,86.67
2023-01-10T04:50:16.441Z,86.67
2023-01-10T04:53:22.932Z,86.83
2023-01-10T04:56:28.771Z,87.00
2023-01-10T04:59:34.627Z,86.96
2023-01-10T05:02:44.409Z,86.84
2023-01-10T05:05:50.359Z,86.95
2023-01-10T05:08:56.106Z,86.81
2023-01-10T05:12:02.362Z,86.77
2023-01-10T05:15:09.821Z,86.88
2023-01-10T05:18:15.847Z,86.77
2023-01-10T05:21:21.700Z,86.86
2023-01-10T05:24:27.414Z,86.84
2023-01-10T05:27:33.268Z,86.74
2023-01-10T05:30:39.031Z,86.69
2023-01-10T05:33:48.178Z,86.73
2023-01-10T05:36:53.923Z,86.81
2023-01-10T05:39:59.686Z,86.95
2023-01-10T05:43:05.634Z,86.97
2023-01-10T05:46:11.653Z,86.74
2023-01-10T05:49:17.457Z,86.74
2023-01-10T05:52:23.199Z,86.70
2023-01-10T05:55:28.977Z,86.77
2023-01-10T05:58:34.715Z,86.90
2023-01-10T06:01:40.456Z,86.98
2023-01-10T06:04:46.209Z,86.97
2023-01-10T06:07:52.176Z,86.92
2023-01-10T06:10:58.241Z,86.72
2023-01-10T06:14:04.226Z,86.96
2023-01-10T06:17:10.294Z,87.02
2023-01-10T06:20:16.743Z,86.92
2023-01-10T06:23:22.449Z,87.07
2023-01-10T06:26:28.178Z,86.88
2023-01-10T06:29:34.816Z,86.90
2023-01-10T06:32:42.501Z,86.77
2023-01-10T06:35:48.363Z,87.04
2023-01-10T06:38:54.115Z,86.95
2023-01-10T06:41:59.858Z,86.93
2023-01-10T06:45:06.582Z,86.84
2023-01-10T06:48:12.300Z,86.92
2023-01-10T06:51:20.190Z,87.13
2023-01-10T06:54:26.273Z,86.75
2023-01-10T06:57:35.470Z,86.98
2023-01-10T07:00:41.672Z,86.82
2023-01-10T07:03:48.081Z,86.74
2023-01-10T07:06:53.921Z,86.89
2023-01-10T07:09:59.997Z,86.98
2023-01-10T07:13:05.731Z,87.17
2023-01-10T07:16:14.390Z,87.00
2023-01-10T07:19:20.543Z,86.97
2023-01-10T07:22:26.564Z,87.17
2023-01-10T07:25:32.720Z,87.09
2023-01-10T07:28:39.051Z,87.22
2023-01-10T07:31:43.339Z,87.32
2023-01-10T07:34:49.270Z,87.07
2023-01-10T07:37:55.539Z,87.05
2023-01-10T07:41:02.518Z,87.01
2023-01-10T07:44:08.580Z,86.87
2023-01-10T07:47:14.439Z,86.79
2023-01-10T07:50:20.706Z,86.93
2023-01-10T07:53:25.427Z,87.21
2023-01-10T07:56:31.285Z,87.17
2023-01-10T07:59:37.153Z,87.22
2023-01-10T08:02:42.989Z,87.07
2023-01-10T08:05:49.064Z,86.89
2023-01-10T08:08:54.818Z,86.85
2023-01-10T08:12:00.904Z,86.85
2023-01-10T08:15:08.117Z,86.95
2023-01-10T08:18:14.035Z,86.62
2023-01-10T08:21:20.916Z,86.76
2023-01-10T08:24:26.747Z,86.56
2023-01-10T08:27:32.624Z,86.62
2023-01-10T08:30:38.750Z,86.51
2023-01-10T08:33:44.569Z,86.68
2023-01-10T08:36:53.096Z,86.92
2023-01-10T08:39:58.922Z,86.90
2023-01-10T08:43:06.630Z,86.91
2023-01-10T08:46:12.547Z,87.07
2023-01-10T08:49:18.577Z,86.92
2023-01-10T08:52:24.393Z,86.88
2023-01-10T08:55:31.774Z,87.03
2023-01-10T08:58:37.748Z,87.20
2023-01-10T09:01:43.586Z,87.09
2023-01-10T09:04:49.765Z,86.92
2023-01-10T09:07:59.729Z,87.05
2023-01-10T09:11:06.630Z,86.94
2023-01-10T09:14:12.372Z,86.83
2023-01-10T09:17:18.363Z,86.76
2023-01-10T09:20:24.718Z,86.83
2023-01-10T09:23:30.425Z,86.92
2023-01-10T09:26:36.267Z,86.93
2023-01-10T09:29:42.146Z,86.80
2023-01-10T09:32:52.829Z,86.79
2023-01-10T09:36:00.181Z,86.93
2023-01-10T09:39:06.047Z,86.93
2023-01-10T09:42:29.531Z,86.92
2023-01-10T09:45:43.811Z,86.75
2023-01-10T09:48:56.523Z,86.93
2023-01-10T09:52:08.820Z,86.80
2023-01-10T09:55:24.987Z,86.85
2023-01-10T09:58:33.447Z,86.69
2023-01-10T10:01:40.307Z,86.50
2023-01-10T10:04:56.928Z,86.57
2023-01-10T10:08:05.054Z,86.54
2023-01-10T10:11:36.523Z,86.57
2023-01-10T10:14:56.166Z,86.87
2023-01-10T10:18:12.377Z,86.62
2023-01-10T10:21:26.024Z,86.83
2023-01-10T10:24:48.390Z,86.47
2023-01-10T10:28:08.056Z,86.49
2023-01-10T10:31:22.968Z,86.47
2023-01-10T10:34:36.772Z,86.52
2023-01-10T10:37:46.310Z,86.44
2023-01-10T10:40:53.208Z,86.83
2023-01-10T10:44:04.963Z,86.67
2023-01-10T10:47:17.618Z,86.56
2023-01-10T10:50:32.448Z,86.58
2023-01-10T10:53:38.506Z,86.52
2023-01-10T10:56:45.508Z,86.58
2023-01-10T10:59:51.964Z,86.33
2023-01-10T11:03:02.689Z,86.58
2023-01-10T11:06:11.246Z,86.59
2023-01-10T11:09:20.273Z,86.45
2023-01-10T11:12:31.186Z,86.54
2023-01-10T11:15:43.548Z,86.68
2023-01-10T11:19:09.133Z,86.68
2023-01-10T11:22:18.931Z,86.59
2023-01-10T11:25:26.143Z,86.52
2023-01-10T11:28:35.122Z,86.53
2023-01-10T11:31:42.383Z,86.58
2023-01-10T11:34:55.058Z,86.57
2023-01-10T11:38:08.104Z,86.58
2023-01-10T11:41:31.773Z,86.72
2023-01-10T11:44:37.707Z,86.70
2023-01-10T11:47:48.080Z,86.86
2023-01-10T11:50:55.880Z,86.90
2023-01-10T11:54:03.788Z,86.85
2023-01-10T11:57:17.451Z,86.78
2023-01-10T12:00:32.402Z,86.78
2023-01-10T12:03:40.400Z,86.89
2023-01-10T12:06:49.357Z,86.72
2023-01-10T12:10:00.238Z,86.68
2023-01-10T12:13:17.522Z,86.71
2023-01-10T12:16:25.915Z,86.81
2023-01-10T12:19:32.475Z,86.85
2023-01-10T12:22:41.062Z,86.72
2023-01-10T12:25:51.472Z,86.67
2023-01-10T12:29:03.015Z,86.52
2023-01-10T12:32:15.217Z,86.67
2023-01-10T12:35:26.376Z,86.34
2023-01-10T12:38:55.379Z,86.23
2023-01-10T12:42:30.743Z,86.38
2023-01-10T12:45:43.668Z,86.49
2023-01-10T12:48:57.281Z,86.42
2023-01-10T12:52:11.735Z,86.57
2023-01-10T12:55:20.048Z,86.60
2023-01-10T12:58:29.110Z,86.52
2023-01-10T13:01:40.662Z,86.52
2023-01-10T13:04:52.574Z,86.58
2023-01-10T13:08:05.945Z,86.66
2023-01-10T13:11:17.209Z,86.69
2023-01-10T13:14:28.810Z,86.66
2023-01-10T13:17:42.013Z,86.69
2023-01-10T13:20:50.045Z,86.66
2023-01-10T13:23:59.698Z,86.65
2023-01-10T13:27:06.639Z,86.60
2023-01-10T13:30:29.311Z,86.52
2023-01-10T13:33:41.384Z,86.58
2023-01-10T13:36:52.480Z,86.74
2023-01-10T13:40:06.659Z,86.83
2023-01-10T13:43:47.426Z,86.70
2023-01-10T13:46:53.573Z,86.85
2023-01-10T13:49:59.328Z,86.77
2023-01-10T13:53:35.793Z,86.65
2023-01-10T13:56:43.375Z,86.70
2023-01-10T14:00:23.717Z,86.68
2023-01-10T14:03:50.983Z,86.68
2023-01-10T14:06:59.457Z,86.67
2023-01-10T14:10:08.605Z,86.63
2023-01-10T14:13:23.764Z,86.61
2023-01-10T14:16:36.712Z,86.64
2023-01-10T14:19:43.795Z,86.67
2023-01-10T14:23:03.516Z,86.64
2023-01-10T14:26:16.276Z,86.61
2023-01-10T14:29:22.837Z,86.68
2023-01-10T14:32:40.836Z,86.90
2023-01-10T14:35:51.573Z,86.90
2023-01-10T14:39:01.081Z,86.71
2023-01-10T14:42:14.268Z,86.58
2023-01-10T14:45:30.748Z,86.66
2023-01-10T14:48:42.218Z,86.63
2023-01-10T14:51:50.573Z,86.68
2023-01-10T14:55:07.639Z,86.76
2023-01-10T14:58:19.867Z,86.84
2023-01-10T15:01:31.799Z,86.62
2023-01-10T15:04:39.075Z,86.63
2023-01-10T15:07:44.995Z,86.82
2023-01-10T15:10:54.255Z,86.70
2023-01-10T15:14:07.581Z,86.81
2023-01-10T15:17:20.530Z,86.67
2023-01-10T15:20:27.258Z,86.66
2023-01-10T15:23:39.262Z,86.68
2023-01-10T15:26:45.072Z,86.54
2023-01-10T15:29:51.077Z,86.77
2023-01-10T15:32:59.011Z,86.77
2023-01-10T15:36:09.321Z,86.91
2023-01-10T15:39:22.136Z,86.97
2023-01-10T15:42:28.394Z,86.91
2023-01-10T15:45:39.206Z,86.68
2023-01-10T15:48:54.793Z,86.54
2023-01-10T15:51:59.518Z,86.69
2023-01-10T15:55:36.195Z,86.76
2023-01-10T15:58:45.532Z,86.78
2023-01-10T16:01:58.754Z,86.69
2023-01-10T16:05:17.950Z,86.79
2023-01-10T16:08:27.088Z,86.86
2023-01-10T16:11:57.509Z,86.75
2023-01-10T16:15:03.776Z,86.69
2023-01-10T16:18:09.843Z,86.75
2023-01-10T16:21:16.310Z,86.93
2023-01-10T16:24:24.230Z,86.92
2023-01-10T16:27:30.038Z,86.94
2023-01-10T16:30:40.663Z,87.05
2023-01-10T16:33:46.668Z,86.99
2023-01-10T16:36:52.541Z,86.94
2023-01-10T16:39:59.117Z,86.96
2023-01-10T16:43:21.846Z,86.98
2023-01-10T16:46:27.843Z,86.92
2023-01-10T16:49:33.607Z,86.92
2023-01-10T16:52:39.341Z,86.93
2023-01-10T16:55:47.038Z,87.02
2023-01-10T16:58:54.613Z,86.95
2023-01-10T17:02:01.242Z,86.84
2023-01-10T17:05:08.263Z,86.87
2023-01-10T17:08:18.429Z,87.08
2023-01-10T17:11:27.911Z,87.05
2023-01-10T17:14:36.450Z,87.07
2023-01-10T17:17:44.977Z,87.09
2023-01-10T17:20:51.295Z,87.01
2023-01-10T17:23:57.167Z,87.08
2023-01-10T17:27:02.893Z,87.11
2023-01-10T17:30:10.708Z,87.23
2023-01-10T17:33:16.465Z,87.33
2023-01-10T17:36:22.650Z,87.29
2023-01-10T17:39:28.807Z,87.19
2023-01-10T17:42:34.905Z,87.08
2023-01-10T17:45:43.518Z,87.21
2023-01-10T17:48:49.280Z,87.31
2023-01-10T17:51:55.287Z,87.30
2023-01-10T17:55:01.159Z,87.26
2023-01-10T17:58:06.896Z,87.30
2023-01-10T18:01:23.817Z,87.32
2023-01-10T18:04:30.914Z,87.21
2023-01-10T18:07:36.758Z,87.23
2023-01-10T18:10:42.611Z,87.12
2023-01-10T18:13:48.773Z,87.10
2023-01-10T18:16:54.811Z,87.29
2023-01-10T18:20:01.209Z,87.27
2023-01-10T18:23:22.497Z,87.35
2023-01-10T18:26:28.601Z,87.12
2023-01-10T18:29:34.646Z,87.24
2023-01-10T18:32:40.812Z,87.31
2023-01-10T18:35:48.829Z,87.40
2023-01-10T18:38:55.298Z,87.37
2023-01-10T18:42:01.378Z,87.46
2023-01-10T18:45:08.733Z,87.47
2023-01-10T18:48:16.475Z,87.52
2023-01-10T18:51:23.822Z,87.53
2023-01-10T18:54:29.900Z,87.44
2023-01-10T18:57:35.946Z,87.35
2023-01-10T19:00:43.012Z,87.34
2023-01-10T19:03:50.247Z,87.36
2023-01-10T19:06:56.945Z,87.42
2023-01-10T19:10:03.154Z,87.41
2023-01-10T19:13:09.154Z,87.44
2023-01-10T19:16:17.291Z,87.35
2023-01-10T19:19:25.969Z,87.46
2023-01-10T19:22:33.188Z,87.56
2023-01-10T19:25:39.324Z,87.49
2023-01-10T19:28:46.267Z,87.49
2023-01-10T19:31:52.853Z,87.37
2023-01-10T19:34:58.812Z,87.41
2023-01-10T19:38:05.167Z,87.38
2023-01-10T19:41:11.655Z,87.31
2023-01-10T19:44:19.235Z,87.47
2023-01-10T19:47:25.412Z,87.41
2023-01-10T19:50:31.427Z,87.33
2023-01-10T19:53:39.247Z,87.28
2023-01-10T19:56:45.375Z,87.42
2023-01-10T19:59:52.599Z,87.52
2023-01-10T20:02:58.957Z,87.56
2023-01-10T20:06:04.369Z,87.51
2023-01-10T20:09:13.137Z,87.53
2023-01-10T20:12:19.168Z,87.41
2023-01-10T20:15:27.530Z,87.60
2023-01-10T20:18:34.101Z,87.50
2023-01-10T20:21:41.452Z,87.58
2023-01-10T20:24:47.637Z,87.48
2023-01-10T20:27:53.816Z,87.47
2023-01-10T20:30:59.851Z,87.46
2023-01-10T20:34:06.060Z,87.51
2023-01-10T20:37:14.203Z,87.43
2023-01-10T20:40:22.920Z,87.55
2023-01-10T20:43:29.160Z,87.59
2023-01-10T20:46:36.833Z,87.64
2023-01-10T20:49:42.899Z,87.72
2023-01-10T20:52:49.032Z,87.74
2023-01-10T20:55:59.972Z,87.62
2023-01-10T20:59:06.787Z,87.68
2023-01-10T21:02:14.357Z,87.86
2023-01-10T21:05:20.635Z,87.78
2023-01-10T21:08:26.860Z,87.91
2023-01-10T21:11:38.820Z,87.72
2023-01-10T21:14:53.924Z,87.80
2023-01-10T21:17:59.980Z,87.86
2023-01-10T21:21:06.602Z,87.71
2023-01-10T21:24:13.522Z,87.78
2023-01-10T21:27:19.713Z,87.96
2023-01-10T21:30:27.044Z,87.86
2023-01-10T21:33:33.446Z,87.85
2023-01-10T21:36:37.938Z,87.69
2023-01-10T21:39:43.923Z,87.71
2023-01-10T21:42:50.044Z,87.97
2023-01-10T21:46:00.742Z,88.10
2023-01-10T21:49:07.438Z,87.91
2023-01-10T21:52:13.564Z,87.92
2023-01-10T21:55:19.652Z,87.83
2023-01-10T21:58:25.792Z,87.92
2023-01-10T22:01:31.992Z,87.93
2023-01-10T22:04:38.122Z,87.70
2023-01-10T22:07:46.101Z,87.78
2023-01-10T22:10:52.122Z,88.05
2023-01-10T22:13:58.379Z,87.97
2023-01-10T22:17:04.439Z,87.87
2023-01-10T22:20:13.413Z,87.85
2023-01-10T22:23:19.608Z,87.85
2023-01-10T22:26:25.543Z,87.97
2023-01-10T22:29:31.570Z,87.88
2023-01-10T22:32:37.588Z,87.98
2023-01-10T22:35:43.901Z,87.86
2023-01-10T22:38:48.974Z,87.80
2023-01-10T22:41:55.363Z,87.83
2023-01-10T22:45:01.459Z,87.83
2023-01-10T22:48:08.199Z,88.00
2023-01-10T22:51:14.618Z,87.86
2023-01-10T22:54:20.669Z,88.11
2023-01-10T22:57:28.729Z,87.92
2023-01-10T23:00:35.053Z,87.86
2023-01-10T23:03:41.232Z,87.88
2023-01-10T23:06:45.605Z,87.89
2023-01-10T23:09:51.820Z,87.88
2023-01-10T23:12:58.011Z,87.98
2023-01-10T23:16:03.481Z,87.79
2023-01-10T23:19:09.515Z,87.85
2023-01-10T23:22:16.112Z,87.94
2023-01-10T23:25:22.200Z,87.95
2023-01-10T23:28:28.129Z,87.96
2023-01-10T23:31:34.329Z,87.79
2023-01-10T23:34:40.519Z,87.89
2023-01-10T23:37:46.520Z,87.91
2023-01-10T23:40:52.557Z,87.85
2023-01-10T23:43:58.521Z,87.79
2023-01-10T23:47:04.531Z,87.74
2023-01-10T23:50:12.191Z,87.74
2023-01-10T23:53:19.286Z,87.93
2023-01-10T23:56:25.300Z,87.98
2023-01-10T23:59:31.243Z,87.94
